OPKC/KHI METAR and TAF weather

Enter ICAO airport designator
Station Type Date Time Source
OPKC METAR 2019/10/21 01:25 UTC NOAA

OPKC 210125Z 36004KT 6000 NSC 22/13 Q1013 NOSIG


Station Type Date Time Source
OPKC Decoded METAR 2019/10/21 01:25 UTC NOAA

Karachi Airport, Pakistan (OPKC) 24-54N 067-08E 22M
Oct 20, 2019 - 09:25 PM EDT / 2019.10.21 0125 UTC
Wind: from the N (360 degrees) at 5 MPH (4 KT):0
Visibility: 3 mile(s):0
Temperature: 71 F (22 C)
Dew Point: 55 F (13 C)
Relative Humidity: 56%
Pressure (altimeter): 29.91 in. Hg (1013 hPa)
ob: OPKC 210125Z 36004KT 6000 NSC 22/13 Q1013 NOSIG
cycle: 1

Station Type Date Time Source
OPKC TAF 2019/10/20 18:21 UTC NOAA

TAF OPKC 201600Z 2018/2124 02006KT 5000 HZ NSC
TEMPO 2100/2104 VRB03KT 3000 FU NSC
BECMG 2107/2109 16010KT 6000 SCT030
FM211800 29005KT 5000 HZ NSC

Example: see airport list